sensor_id;sensor_type;location;lat;lon;timestamp;P1;durP1;ratioP1;P2;durP2;ratioP2
49183;SDS011;35021;49.214;12.270;2023-07-29T00:01:34;1.15;;;0.90;;
49183;SDS011;35021;49.214;12.270;2023-07-29T00:04:01;1.10;;;0.70;;
49183;SDS011;35021;49.214;12.270;2023-07-29T00:06:29;1.48;;;1.00;;
49183;SDS011;35021;49.214;12.270;2023-07-29T00:08:56;1.33;;;1.10;;
49183;SDS011;35021;49.214;12.270;2023-07-29T00:11:23;1.20;;;0.90;;
49183;SDS011;35021;49.214;12.270;2023-07-29T00:13:50;1.58;;;1.13;;
49183;SDS011;35021;49.214;12.270;2023-07-29T00:16:17;1.00;;;0.80;;
49183;SDS011;35021;49.214;12.270;2023-07-29T00:18:44;1.08;;;0.82;;
49183;SDS011;35021;49.214;12.270;2023-07-29T00:21:11;1.33;;;0.82;;
49183;SDS011;35021;49.214;12.270;2023-07-29T00:23:38;1.27;;;1.05;;
49183;SDS011;35021;49.214;12.270;2023-07-29T00:26:04;1.20;;;0.90;;
49183;SDS011;35021;49.214;12.270;2023-07-29T00:28:31;1.38;;;0.90;;
49183;SDS011;35021;49.214;12.270;2023-07-29T00:30:59;1.35;;;1.10;;
49183;SDS011;35021;49.214;12.270;2023-07-29T00:33:26;1.10;;;0.82;;
49183;SDS011;35021;49.214;12.270;2023-07-29T00:35:55;1.20;;;0.90;;
49183;SDS011;35021;49.214;12.270;2023-07-29T00:38:21;1.55;;;0.93;;
49183;SDS011;35021;49.214;12.270;2023-07-29T00:40:48;1.17;;;1.00;;
49183;SDS011;35021;49.214;12.270;2023-07-29T00:43:16;1.17;;;0.85;;
49183;SDS011;35021;49.214;12.270;2023-07-29T00:45:43;1.40;;;1.00;;
49183;SDS011;35021;49.214;12.270;2023-07-29T00:48:11;1.30;;;0.88;;
49183;SDS011;35021;49.214;12.270;2023-07-29T00:50:38;1.58;;;0.90;;
49183;SDS011;35021;49.214;12.270;2023-07-29T00:53:05;1.45;;;0.93;;
49183;SDS011;35021;49.214;12.270;2023-07-29T00:55:32;1.00;;;0.90;;
49183;SDS011;35021;49.214;12.270;2023-07-29T00:57:59;1.10;;;1.00;;
49183;SDS011;35021;49.214;12.270;2023-07-29T01:00:26;2.15;;;1.00;;
49183;SDS011;35021;49.214;12.270;2023-07-29T01:02:53;1.20;;;0.98;;
49183;SDS011;35021;49.214;12.270;2023-07-29T01:05:21;1.10;;;0.82;;
49183;SDS011;35021;49.214;12.270;2023-07-29T01:08:06;1.52;;;1.00;;
49183;SDS011;35021;49.214;12.270;2023-07-29T01:10:57;1.13;;;1.02;;
49183;SDS011;35021;49.214;12.270;2023-07-29T01:19:26;1.58;;;1.02;;
49183;SDS011;35021;49.214;12.270;2023-07-29T01:22:15;1.42;;;1.30;;
49183;SDS011;35021;49.214;12.270;2023-07-29T01:24:44;1.45;;;1.13;;
49183;SDS011;35021;49.214;12.270;2023-07-29T01:27:10;1.27;;;1.00;;
49183;SDS011;35021;49.214;12.270;2023-07-29T01:29:37;1.50;;;1.10;;
49183;SDS011;35021;49.214;12.270;2023-07-29T01:32:07;1.63;;;1.20;;
49183;SDS011;35021;49.214;12.270;2023-07-29T01:34:48;1.92;;;0.90;;
49183;SDS011;35021;49.214;12.270;2023-07-29T01:37:26;1.33;;;0.98;;
49183;SDS011;35021;49.214;12.270;2023-07-29T01:39:55;2.03;;;1.10;;
49183;SDS011;35021;49.214;12.270;2023-07-29T01:42:24;1.63;;;0.93;;
49183;SDS011;35021;49.214;12.270;2023-07-29T01:44:54;1.77;;;1.10;;
49183;SDS011;35021;49.214;12.270;2023-07-29T01:47:21;2.10;;;1.05;;
49183;SDS011;35021;49.214;12.270;2023-07-29T01:49:49;1.35;;;1.00;;
49183;SDS011;35021;49.214;12.270;2023-07-29T01:52:16;1.20;;;1.10;;
49183;SDS011;35021;49.214;12.270;2023-07-29T01:54:43;1.50;;;1.10;;
49183;SDS011;35021;49.214;12.270;2023-07-29T01:57:10;2.28;;;1.00;;
49183;SDS011;35021;49.214;12.270;2023-07-29T01:59:37;1.65;;;1.10;;
49183;SDS011;35021;49.214;12.270;2023-07-29T02:02:04;1.52;;;0.90;;
49183;SDS011;35021;49.214;12.270;2023-07-29T02:04:31;2.80;;;1.20;;
49183;SDS011;35021;49.214;12.270;2023-07-29T02:06:58;1.20;;;1.00;;
49183;SDS011;35021;49.214;12.270;2023-07-29T02:09:25;1.35;;;0.95;;
49183;SDS011;35021;49.214;12.270;2023-07-29T02:11:52;1.48;;;0.80;;
49183;SDS011;35021;49.214;12.270;2023-07-29T02:14:18;1.33;;;1.05;;
49183;SDS011;35021;49.214;12.270;2023-07-29T02:16:45;1.70;;;1.00;;
49183;SDS011;35021;49.214;12.270;2023-07-29T02:19:12;1.27;;;0.93;;
49183;SDS011;35021;49.214;12.270;2023-07-29T02:21:39;2.33;;;1.10;;
49183;SDS011;35021;49.214;12.270;2023-07-29T02:24:06;2.75;;;1.10;;
49183;SDS011;35021;49.214;12.270;2023-07-29T02:26:32;1.10;;;0.93;;
49183;SDS011;35021;49.214;12.270;2023-07-29T02:29:00;1.20;;;0.80;;
49183;SDS011;35021;49.214;12.270;2023-07-29T02:31:27;0.95;;;0.82;;
49183;SDS011;35021;49.214;12.270;2023-07-29T02:33:54;1.23;;;0.90;;
49183;SDS011;35021;49.214;12.270;2023-07-29T02:36:21;1.63;;;0.90;;
49183;SDS011;35021;49.214;12.270;2023-07-29T02:38:48;1.42;;;1.10;;
49183;SDS011;35021;49.214;12.270;2023-07-29T02:41:15;1.77;;;1.15;;
49183;SDS011;35021;49.214;12.270;2023-07-29T02:43:43;1.60;;;1.05;;
49183;SDS011;35021;49.214;12.270;2023-07-29T02:46:15;1.00;;;0.90;;
49183;SDS011;35021;49.214;12.270;2023-07-29T02:48:42;1.73;;;0.98;;
49183;SDS011;35021;49.214;12.270;2023-07-29T02:51:10;1.20;;;0.90;;
49183;SDS011;35021;49.214;12.270;2023-07-29T02:53:37;1.30;;;1.10;;
49183;SDS011;35021;49.214;12.270;2023-07-29T02:56:04;1.10;;;1.00;;
49183;SDS011;35021;49.214;12.270;2023-07-29T02:58:32;1.08;;;0.85;;
49183;SDS011;35021;49.214;12.270;2023-07-29T03:01:02;2.20;;;1.13;;
49183;SDS011;35021;49.214;12.270;2023-07-29T03:03:30;1.63;;;1.00;;
49183;SDS011;35021;49.214;12.270;2023-07-29T03:05:58;1.40;;;0.85;;
49183;SDS011;35021;49.214;12.270;2023-07-29T03:08:27;3.22;;;1.00;;
49183;SDS011;35021;49.214;12.270;2023-07-29T03:10:54;3.08;;;1.20;;
49183;SDS011;35021;49.214;12.270;2023-07-29T03:13:22;3.17;;;1.00;;
49183;SDS011;35021;49.214;12.270;2023-07-29T03:15:49;1.20;;;1.10;;
49183;SDS011;35021;49.214;12.270;2023-07-29T03:18:16;1.25;;;1.13;;
49183;SDS011;35021;49.214;12.270;2023-07-29T03:20:42;1.25;;;1.05;;
49183;SDS011;35021;49.214;12.270;2023-07-29T03:23:09;1.52;;;1.15;;
49183;SDS011;35021;49.214;12.270;2023-07-29T03:25:36;2.65;;;1.08;;
49183;SDS011;35021;49.214;12.270;2023-07-29T03:28:03;2.30;;;1.42;;
49183;SDS011;35021;49.214;12.270;2023-07-29T03:30:30;1.58;;;1.02;;
49183;SDS011;35021;49.214;12.270;2023-07-29T03:32:57;1.38;;;0.95;;
49183;SDS011;35021;49.214;12.270;2023-07-29T03:35:23;2.17;;;1.08;;
49183;SDS011;35021;49.214;12.270;2023-07-29T03:37:50;2.80;;;1.20;;
49183;SDS011;35021;49.214;12.270;2023-07-29T03:40:17;1.65;;;1.08;;
49183;SDS011;35021;49.214;12.270;2023-07-29T03:42:44;1.80;;;1.20;;
49183;SDS011;35021;49.214;12.270;2023-07-29T03:45:11;1.52;;;1.20;;
49183;SDS011;35021;49.214;12.270;2023-07-29T03:47:38;1.30;;;0.88;;
49183;SDS011;35021;49.214;12.270;2023-07-29T03:50:05;1.67;;;1.13;;
49183;SDS011;35021;49.214;12.270;2023-07-29T03:52:32;2.55;;;1.40;;
49183;SDS011;35021;49.214;12.270;2023-07-29T03:54:59;1.52;;;1.10;;
49183;SDS011;35021;49.214;12.270;2023-07-29T03:57:26;1.50;;;1.10;;
49183;SDS011;35021;49.214;12.270;2023-07-29T03:59:53;2.30;;;1.25;;
49183;SDS011;35021;49.214;12.270;2023-07-29T04:02:20;1.45;;;1.33;;
49183;SDS011;35021;49.214;12.270;2023-07-29T04:04:47;1.80;;;1.20;;
49183;SDS011;35021;49.214;12.270;2023-07-29T04:07:14;2.35;;;1.48;;
49183;SDS011;35021;49.214;12.270;2023-07-29T04:09:41;1.73;;;1.00;;
49183;SDS011;35021;49.214;12.270;2023-07-29T04:12:09;2.33;;;1.20;;
49183;SDS011;35021;49.214;12.270;2023-07-29T04:14:36;1.38;;;1.00;;
49183;SDS011;35021;49.214;12.270;2023-07-29T04:17:03;1.50;;;1.30;;
49183;SDS011;35021;49.214;12.270;2023-07-29T04:19:30;1.80;;;1.23;;
49183;SDS011;35021;49.214;12.270;2023-07-29T04:21:57;1.45;;;1.05;;
49183;SDS011;35021;49.214;12.270;2023-07-29T04:24:24;2.20;;;1.38;;
49183;SDS011;35021;49.214;12.270;2023-07-29T04:26:51;1.77;;;1.20;;
49183;SDS011;35021;49.214;12.270;2023-07-29T04:29:18;2.97;;;1.30;;
49183;SDS011;35021;49.214;12.270;2023-07-29T04:31:44;2.00;;;1.40;;
49183;SDS011;35021;49.214;12.270;2023-07-29T04:34:12;1.40;;;1.20;;
49183;SDS011;35021;49.214;12.270;2023-07-29T04:36:39;2.38;;;1.38;;
49183;SDS011;35021;49.214;12.270;2023-07-29T04:39:05;1.95;;;1.20;;
49183;SDS011;35021;49.214;12.270;2023-07-29T04:41:32;1.63;;;1.20;;
49183;SDS011;35021;49.214;12.270;2023-07-29T04:43:59;4.20;;;1.70;;
49183;SDS011;35021;49.214;12.270;2023-07-29T04:46:26;1.52;;;1.35;;
49183;SDS011;35021;49.214;12.270;2023-07-29T04:48:53;3.58;;;1.50;;
49183;SDS011;35021;49.214;12.270;2023-07-29T04:51:20;1.50;;;1.20;;
49183;SDS011;35021;49.214;12.270;2023-07-29T04:53:47;2.55;;;1.20;;
49183;SDS011;35021;49.214;12.270;2023-07-29T04:56:14;1.88;;;1.30;;
49183;SDS011;35021;49.214;12.270;2023-07-29T04:58:43;1.63;;;1.20;;
49183;SDS011;35021;49.214;12.270;2023-07-29T05:01:10;2.63;;;1.40;;
49183;SDS011;35021;49.214;12.270;2023-07-29T05:03:37;1.67;;;1.20;;
49183;SDS011;35021;49.214;12.270;2023-07-29T05:06:06;1.85;;;1.40;;
49183;SDS011;35021;49.214;12.270;2023-07-29T05:08:33;2.63;;;1.38;;
49183;SDS011;35021;49.214;12.270;2023-07-29T05:10:59;2.20;;;1.58;;
49183;SDS011;35021;49.214;12.270;2023-07-29T05:13:26;2.38;;;1.40;;
49183;SDS011;35021;49.214;12.270;2023-07-29T05:15:53;1.50;;;1.40;;
49183;SDS011;35021;49.214;12.270;2023-07-29T05:18:20;1.50;;;1.40;;
49183;SDS011;35021;49.214;12.270;2023-07-29T05:20:47;1.58;;;1.30;;
49183;SDS011;35021;49.214;12.270;2023-07-29T05:23:14;1.65;;;1.38;;
49183;SDS011;35021;49.214;12.270;2023-07-29T05:25:41;2.00;;;1.40;;
49183;SDS011;35021;49.214;12.270;2023-07-29T05:28:08;1.45;;;1.30;;
49183;SDS011;35021;49.214;12.270;2023-07-29T05:30:35;7.97;;;1.88;;
49183;SDS011;35021;49.214;12.270;2023-07-29T05:33:03;1.70;;;1.60;;
49183;SDS011;35021;49.214;12.270;2023-07-29T05:35:31;2.08;;;1.77;;
49183;SDS011;35021;49.214;12.270;2023-07-29T05:37:58;1.63;;;1.38;;
49183;SDS011;35021;49.214;12.270;2023-07-29T05:40:24;1.90;;;1.63;;
49183;SDS011;35021;49.214;12.270;2023-07-29T05:42:51;1.90;;;1.55;;
49183;SDS011;35021;49.214;12.270;2023-07-29T05:45:18;3.55;;;1.88;;
49183;SDS011;35021;49.214;12.270;2023-07-29T05:47:45;2.00;;;1.80;;
49183;SDS011;35021;49.214;12.270;2023-07-29T05:50:12;2.10;;;1.90;;
49183;SDS011;35021;49.214;12.270;2023-07-29T05:52:38;2.00;;;1.65;;
49183;SDS011;35021;49.214;12.270;2023-07-29T05:55:05;1.90;;;1.70;;
49183;SDS011;35021;49.214;12.270;2023-07-29T05:57:32;2.00;;;1.80;;
49183;SDS011;35021;49.214;12.270;2023-07-29T05:59:59;2.47;;;2.08;;
49183;SDS011;35021;49.214;12.270;2023-07-29T06:02:27;2.97;;;1.70;;
49183;SDS011;35021;49.214;12.270;2023-07-29T06:04:53;2.20;;;1.90;;
49183;SDS011;35021;49.214;12.270;2023-07-29T06:07:20;2.20;;;1.92;;
49183;SDS011;35021;49.214;12.270;2023-07-29T06:09:47;2.17;;;1.88;;
49183;SDS011;35021;49.214;12.270;2023-07-29T06:12:14;2.67;;;1.70;;
49183;SDS011;35021;49.214;12.270;2023-07-29T06:14:41;2.45;;;2.25;;
49183;SDS011;35021;49.214;12.270;2023-07-29T06:17:08;2.03;;;1.85;;
49183;SDS011;35021;49.214;12.270;2023-07-29T06:19:37;2.20;;;2.00;;
49183;SDS011;35021;49.214;12.270;2023-07-29T06:22:04;2.15;;;1.95;;
49183;SDS011;35021;49.214;12.270;2023-07-29T06:24:32;2.65;;;2.45;;
49183;SDS011;35021;49.214;12.270;2023-07-29T06:26:59;2.08;;;1.90;;
49183;SDS011;35021;49.214;12.270;2023-07-29T06:29:26;2.10;;;1.90;;
49183;SDS011;35021;49.214;12.270;2023-07-29T06:31:52;2.08;;;1.88;;
49183;SDS011;35021;49.214;12.270;2023-07-29T06:34:20;2.45;;;2.25;;
49183;SDS011;35021;49.214;12.270;2023-07-29T06:36:49;2.20;;;2.00;;
49183;SDS011;35021;49.214;12.270;2023-07-29T06:39:16;2.13;;;1.90;;
49183;SDS011;35021;49.214;12.270;2023-07-29T06:41:43;2.22;;;2.03;;
49183;SDS011;35021;49.214;12.270;2023-07-29T06:44:10;1.90;;;1.80;;
49183;SDS011;35021;49.214;12.270;2023-07-29T06:46:37;2.30;;;2.10;;
49183;SDS011;35021;49.214;12.270;2023-07-29T06:49:04;3.00;;;2.08;;
49183;SDS011;35021;49.214;12.270;2023-07-29T06:51:31;2.45;;;2.00;;
49183;SDS011;35021;49.214;12.270;2023-07-29T06:54:01;2.05;;;1.85;;
49183;SDS011;35021;49.214;12.270;2023-07-29T06:56:29;2.10;;;1.95;;
49183;SDS011;35021;49.214;12.270;2023-07-29T06:58:56;1.70;;;1.60;;
49183;SDS011;35021;49.214;12.270;2023-07-29T07:01:22;2.55;;;2.10;;
49183;SDS011;35021;49.214;12.270;2023-07-29T07:03:49;2.20;;;2.00;;
49183;SDS011;35021;49.214;12.270;2023-07-29T07:06:16;1.92;;;1.80;;
49183;SDS011;35021;49.214;12.270;2023-07-29T07:08:43;2.30;;;2.10;;
49183;SDS011;35021;49.214;12.270;2023-07-29T07:11:10;2.58;;;2.22;;
49183;SDS011;35021;49.214;12.270;2023-07-29T07:13:37;2.30;;;2.10;;
49183;SDS011;35021;49.214;12.270;2023-07-29T07:16:04;2.33;;;2.13;;
49183;SDS011;35021;49.214;12.270;2023-07-29T07:18:31;2.17;;;1.98;;
49183;SDS011;35021;49.214;12.270;2023-07-29T07:20:57;2.33;;;2.13;;
49183;SDS011;35021;49.214;12.270;2023-07-29T07:23:24;2.40;;;2.20;;
49183;SDS011;35021;49.214;12.270;2023-07-29T07:25:51;2.25;;;2.05;;
49183;SDS011;35021;49.214;12.270;2023-07-29T07:28:18;2.20;;;2.00;;
49183;SDS011;35021;49.214;12.270;2023-07-29T07:30:45;2.10;;;2.00;;
49183;SDS011;35021;49.214;12.270;2023-07-29T07:33:12;2.25;;;2.05;;
49183;SDS011;35021;49.214;12.270;2023-07-29T07:35:39;2.28;;;2.08;;
49183;SDS011;35021;49.214;12.270;2023-07-29T07:38:08;2.15;;;1.95;;
49183;SDS011;35021;49.214;12.270;2023-07-29T07:40:36;2.25;;;1.88;;
49183;SDS011;35021;49.214;12.270;2023-07-29T07:43:02;2.20;;;2.00;;
49183;SDS011;35021;49.214;12.270;2023-07-29T07:45:29;2.33;;;2.13;;
49183;SDS011;35021;49.214;12.270;2023-07-29T07:47:59;1.95;;;1.80;;
49183;SDS011;35021;49.214;12.270;2023-07-29T07:50:28;2.03;;;1.83;;
49183;SDS011;35021;49.214;12.270;2023-07-29T07:52:56;3.15;;;2.03;;
49183;SDS011;35021;49.214;12.270;2023-07-29T07:55:23;1.67;;;1.58;;
49183;SDS011;35021;49.214;12.270;2023-07-29T07:57:49;2.63;;;1.90;;
49183;SDS011;35021;49.214;12.270;2023-07-29T08:00:16;3.80;;;2.20;;
49183;SDS011;35021;49.214;12.270;2023-07-29T08:02:45;3.40;;;2.22;;
49183;SDS011;35021;49.214;12.270;2023-07-29T08:05:12;4.85;;;2.50;;
49183;SDS011;35021;49.214;12.270;2023-07-29T08:07:39;5.40;;;3.00;;
49183;SDS011;35021;49.214;12.270;2023-07-29T08:10:06;5.78;;;3.20;;
49183;SDS011;35021;49.214;12.270;2023-07-29T08:12:33;7.32;;;3.40;;
49183;SDS011;35021;49.214;12.270;2023-07-29T08:15:00;7.07;;;3.70;;
49183;SDS011;35021;49.214;12.270;2023-07-29T08:17:27;8.80;;;3.33;;
49183;SDS011;35021;49.214;12.270;2023-07-29T08:19:54;7.40;;;3.22;;
49183;SDS011;35021;49.214;12.270;2023-07-29T08:22:21;6.85;;;3.30;;
49183;SDS011;35021;49.214;12.270;2023-07-29T08:24:48;4.75;;;2.88;;
49183;SDS011;35021;49.214;12.270;2023-07-29T08:27:15;6.43;;;3.53;;
49183;SDS011;35021;49.214;12.270;2023-07-29T08:29:44;6.07;;;3.35;;
49183;SDS011;35021;49.214;12.270;2023-07-29T08:32:11;8.32;;;3.90;;
49183;SDS011;35021;49.214;12.270;2023-07-29T08:34:38;9.10;;;3.85;;
49183;SDS011;35021;49.214;12.270;2023-07-29T08:37:05;6.13;;;3.42;;
49183;SDS011;35021;49.214;12.270;2023-07-29T08:39:32;11.77;;;4.65;;
49183;SDS011;35021;49.214;12.270;2023-07-29T08:42:03;9.15;;;4.13;;
49183;SDS011;35021;49.214;12.270;2023-07-29T08:44:35;9.45;;;4.15;;
49183;SDS011;35021;49.214;12.270;2023-07-29T08:47:07;6.78;;;3.92;;
49183;SDS011;35021;49.214;12.270;2023-07-29T08:49:35;10.10;;;4.45;;
49183;SDS011;35021;49.214;12.270;2023-07-29T08:52:03;7.15;;;3.85;;
49183;SDS011;35021;49.214;12.270;2023-07-29T08:54:31;9.57;;;4.10;;
49183;SDS011;35021;49.214;12.270;2023-07-29T08:56:58;6.18;;;3.47;;
49183;SDS011;35021;49.214;12.270;2023-07-29T08:59:25;9.70;;;4.32;;
49183;SDS011;35021;49.214;12.270;2023-07-29T09:01:54;5.68;;;3.35;;
49183;SDS011;35021;49.214;12.270;2023-07-29T09:04:23;7.05;;;3.53;;
49183;SDS011;35021;49.214;12.270;2023-07-29T09:06:51;6.43;;;2.88;;
49183;SDS011;35021;49.214;12.270;2023-07-29T09:09:21;4.65;;;2.50;;
49183;SDS011;35021;49.214;12.270;2023-07-29T09:11:48;4.88;;;2.58;;
49183;SDS011;35021;49.214;12.270;2023-07-29T09:14:15;5.38;;;2.50;;
49183;SDS011;35021;49.214;12.270;2023-07-29T09:16:42;4.78;;;2.50;;
49183;SDS011;35021;49.214;12.270;2023-07-29T09:19:10;4.32;;;2.47;;
49183;SDS011;35021;49.214;12.270;2023-07-29T09:21:40;3.72;;;2.10;;
49183;SDS011;35021;49.214;12.270;2023-07-29T09:24:07;4.22;;;2.42;;
49183;SDS011;35021;49.214;12.270;2023-07-29T09:26:35;5.00;;;2.40;;
49183;SDS011;35021;49.214;12.270;2023-07-29T09:29:03;3.10;;;2.08;;
49183;SDS011;35021;49.214;12.270;2023-07-29T09:31:30;5.13;;;2.28;;
49183;SDS011;35021;49.214;12.270;2023-07-29T09:34:01;4.60;;;2.78;;
49183;SDS011;35021;49.214;12.270;2023-07-29T09:36:30;3.28;;;1.80;;
49183;SDS011;35021;49.214;12.270;2023-07-29T09:38:57;6.07;;;2.50;;
49183;SDS011;35021;49.214;12.270;2023-07-29T09:41:28;4.50;;;1.90;;
49183;SDS011;35021;49.214;12.270;2023-07-29T09:44:00;3.42;;;1.85;;
49183;SDS011;35021;49.214;12.270;2023-07-29T09:46:34;3.42;;;2.10;;
49183;SDS011;35021;49.214;12.270;2023-07-29T09:49:04;4.35;;;1.83;;
49183;SDS011;35021;49.214;12.270;2023-07-29T09:51:36;2.30;;;1.50;;
49183;SDS011;35021;49.214;12.270;2023-07-29T09:54:07;4.50;;;1.65;;
49183;SDS011;35021;49.214;12.270;2023-07-29T09:56:34;2.42;;;1.65;;
49183;SDS011;35021;49.214;12.270;2023-07-29T09:59:07;2.95;;;1.75;;
49183;SDS011;35021;49.214;12.270;2023-07-29T10:01:34;2.85;;;1.70;;
49183;SDS011;35021;49.214;12.270;2023-07-29T10:04:03;3.25;;;1.58;;
49183;SDS011;35021;49.214;12.270;2023-07-29T10:06:32;2.97;;;1.63;;
49183;SDS011;35021;49.214;12.270;2023-07-29T10:09:02;1.38;;;1.08;;
49183;SDS011;35021;49.214;12.270;2023-07-29T10:11:29;4.50;;;1.30;;
49183;SDS011;35021;49.214;12.270;2023-07-29T10:13:58;1.73;;;1.02;;
49183;SDS011;35021;49.214;12.270;2023-07-29T10:16:36;2.95;;;1.70;;
49183;SDS011;35021;49.214;12.270;2023-07-29T10:19:04;2.60;;;1.42;;
49183;SDS011;35021;49.214;12.270;2023-07-29T10:21:31;1.90;;;1.30;;
49183;SDS011;35021;49.214;12.270;2023-07-29T10:24:01;2.38;;;1.10;;
49183;SDS011;35021;49.214;12.270;2023-07-29T10:26:32;2.13;;;1.23;;
49183;SDS011;35021;49.214;12.270;2023-07-29T10:29:01;1.58;;;1.20;;
49183;SDS011;35021;49.214;12.270;2023-07-29T10:31:35;1.92;;;1.20;;
49183;SDS011;35021;49.214;12.270;2023-07-29T10:34:03;1.98;;;1.20;;
49183;SDS011;35021;49.214;12.270;2023-07-29T10:36:30;2.38;;;1.00;;
49183;SDS011;35021;49.214;12.270;2023-07-29T10:38:57;1.90;;;1.23;;
49183;SDS011;35021;49.214;12.270;2023-07-29T10:41:37;1.40;;;1.05;;
49183;SDS011;35021;49.214;12.270;2023-07-29T10:47:16;2.28;;;1.40;;
49183;SDS011;35021;49.214;12.270;2023-07-29T10:49:49;1.77;;;1.45;;
49183;SDS011;35021;49.214;12.270;2023-07-29T10:52:28;2.63;;;1.40;;
49183;SDS011;35021;49.214;12.270;2023-07-29T10:54:57;2.33;;;1.30;;
49183;SDS011;35021;49.214;12.270;2023-07-29T11:00:02;4.72;;;1.40;;
49183;SDS011;35021;49.214;12.270;2023-07-29T11:02:32;2.90;;;1.30;;
49183;SDS011;35021;49.214;12.270;2023-07-29T11:05:06;2.00;;;1.27;;
49183;SDS011;35021;49.214;12.270;2023-07-29T11:07:45;1.60;;;1.23;;
49183;SDS011;35021;49.214;12.270;2023-07-29T11:10:15;2.20;;;1.45;;
49183;SDS011;35021;49.214;12.270;2023-07-29T11:17:57;2.05;;;1.40;;
49183;SDS011;35021;49.214;12.270;2023-07-29T11:20:29;1.92;;;1.27;;
49183;SDS011;35021;49.214;12.270;2023-07-29T11:23:01;2.10;;;1.40;;
49183;SDS011;35021;49.214;12.270;2023-07-29T11:25:30;3.15;;;1.88;;
49183;SDS011;35021;49.214;12.270;2023-07-29T11:27:59;1.73;;;1.30;;
49183;SDS011;35021;49.214;12.270;2023-07-29T11:30:32;1.60;;;1.20;;
49183;SDS011;35021;49.214;12.270;2023-07-29T11:33:00;1.40;;;1.10;;
49183;SDS011;35021;49.214;12.270;2023-07-29T11:35:27;1.85;;;1.10;;
49183;SDS011;35021;49.214;12.270;2023-07-29T11:37:54;2.38;;;1.38;;
49183;SDS011;35021;49.214;12.270;2023-07-29T11:40:24;1.55;;;1.20;;
49183;SDS011;35021;49.214;12.270;2023-07-29T11:42:51;1.85;;;1.20;;
49183;SDS011;35021;49.214;12.270;2023-07-29T11:45:20;2.88;;;1.00;;
49183;SDS011;35021;49.214;12.270;2023-07-29T11:48:01;1.80;;;1.20;;
49183;SDS011;35021;49.214;12.270;2023-07-29T11:50:28;1.92;;;1.23;;
49183;SDS011;35021;49.214;12.270;2023-07-29T11:52:55;1.75;;;1.23;;
49183;SDS011;35021;49.214;12.270;2023-07-29T11:55:22;1.50;;;1.20;;
49183;SDS011;35021;49.214;12.270;2023-07-29T11:57:50;1.00;;;0.90;;
49183;SDS011;35021;49.214;12.270;2023-07-29T12:00:18;2.20;;;1.30;;
49183;SDS011;35021;49.214;12.270;2023-07-29T12:02:47;1.17;;;0.98;;
49183;SDS011;35021;49.214;12.270;2023-07-29T12:05:16;1.02;;;0.93;;
49183;SDS011;35021;49.214;12.270;2023-07-29T12:07:45;1.30;;;1.15;;
49183;SDS011;35021;49.214;12.270;2023-07-29T12:10:12;1.60;;;1.08;;
49183;SDS011;35021;49.214;12.270;2023-07-29T12:12:46;1.25;;;0.95;;
49183;SDS011;35021;49.214;12.270;2023-07-29T12:15:13;1.45;;;1.05;;
49183;SDS011;35021;49.214;12.270;2023-07-29T12:17:48;1.27;;;1.00;;
49183;SDS011;35021;49.214;12.270;2023-07-29T12:20:19;1.60;;;1.17;;
49183;SDS011;35021;49.214;12.270;2023-07-29T12:22:51;1.17;;;0.98;;
49183;SDS011;35021;49.214;12.270;2023-07-29T12:25:19;2.40;;;1.13;;
49183;SDS011;35021;49.214;12.270;2023-07-29T12:27:46;1.35;;;1.00;;
49183;SDS011;35021;49.214;12.270;2023-07-29T12:30:13;1.48;;;1.27;;
49183;SDS011;35021;49.214;12.270;2023-07-29T12:32:44;1.30;;;1.02;;
49183;SDS011;35021;49.214;12.270;2023-07-29T12:35:12;1.17;;;1.08;;
49183;SDS011;35021;49.214;12.270;2023-07-29T12:37:39;1.42;;;1.08;;
49183;SDS011;35021;49.214;12.270;2023-07-29T12:40:33;1.70;;;1.00;;
49183;SDS011;35021;49.214;12.270;2023-07-29T12:42:56;1.38;;;1.00;;
49183;SDS011;35021;49.214;12.270;2023-07-29T12:45:23;2.00;;;1.02;;
49183;SDS011;35021;49.214;12.270;2023-07-29T12:47:53;1.50;;;1.10;;
49183;SDS011;35021;49.214;12.270;2023-07-29T12:50:20;1.25;;;1.05;;
49183;SDS011;35021;49.214;12.270;2023-07-29T12:52:47;2.33;;;1.15;;
49183;SDS011;35021;49.214;12.270;2023-07-29T12:55:14;1.55;;;1.15;;
49183;SDS011;35021;49.214;12.270;2023-07-29T12:57:43;1.85;;;1.10;;
49183;SDS011;35021;49.214;12.270;2023-07-29T13:00:11;1.70;;;1.05;;
49183;SDS011;35021;49.214;12.270;2023-07-29T13:02:38;1.48;;;1.00;;
49183;SDS011;35021;49.214;12.270;2023-07-29T13:05:07;1.60;;;1.00;;
49183;SDS011;35021;49.214;12.270;2023-07-29T13:07:41;3.10;;;1.30;;
49183;SDS011;35021;49.214;12.270;2023-07-29T13:10:09;1.30;;;1.00;;
49183;SDS011;35021;49.214;12.270;2023-07-29T13:12:36;2.58;;;1.63;;
49183;SDS011;35021;49.214;12.270;2023-07-29T13:15:03;1.45;;;0.90;;
49183;SDS011;35021;49.214;12.270;2023-07-29T13:17:31;2.15;;;1.27;;
49183;SDS011;35021;49.214;12.270;2023-07-29T13:19:58;1.52;;;1.10;;
49183;SDS011;35021;49.214;12.270;2023-07-29T13:22:25;2.05;;;1.33;;
49183;SDS011;35021;49.214;12.270;2023-07-29T13:24:52;0.75;;;0.75;;
49183;SDS011;35021;49.214;12.270;2023-07-29T13:27:18;1.77;;;1.08;;
49183;SDS011;35021;49.214;12.270;2023-07-29T13:29:45;1.52;;;1.08;;
49183;SDS011;35021;49.214;12.270;2023-07-29T13:32:13;1.60;;;1.20;;
49183;SDS011;35021;49.214;12.270;2023-07-29T13:34:40;1.55;;;1.00;;
49183;SDS011;35021;49.214;12.270;2023-07-29T13:37:06;1.85;;;1.15;;
49183;SDS011;35021;49.214;12.270;2023-07-29T13:39:33;2.05;;;1.27;;
49183;SDS011;35021;49.214;12.270;2023-07-29T13:42:00;1.83;;;1.10;;
49183;SDS011;35021;49.214;12.270;2023-07-29T13:44:28;1.77;;;1.08;;
49183;SDS011;35021;49.214;12.270;2023-07-29T13:46:54;2.30;;;1.13;;
49183;SDS011;35021;49.214;12.270;2023-07-29T13:49:21;2.78;;;1.13;;
49183;SDS011;35021;49.214;12.270;2023-07-29T13:51:48;3.35;;;1.20;;
49183;SDS011;35021;49.214;12.270;2023-07-29T13:54:15;1.45;;;1.25;;
49183;SDS011;35021;49.214;12.270;2023-07-29T13:56:42;2.53;;;1.10;;
49183;SDS011;35021;49.214;12.270;2023-07-29T13:59:09;2.88;;;1.30;;
49183;SDS011;35021;49.214;12.270;2023-07-29T14:01:35;1.95;;;1.05;;
49183;SDS011;35021;49.214;12.270;2023-07-29T14:04:02;2.33;;;1.30;;
49183;SDS011;35021;49.214;12.270;2023-07-29T14:06:29;2.50;;;1.30;;
49183;SDS011;35021;49.214;12.270;2023-07-29T14:09:11;1.52;;;1.10;;
49183;SDS011;35021;49.214;12.270;2023-07-29T14:11:38;4.45;;;1.60;;
49183;SDS011;35021;49.214;12.270;2023-07-29T14:14:06;3.40;;;1.33;;
49183;SDS011;35021;49.214;12.270;2023-07-29T14:16:33;2.05;;;1.17;;
49183;SDS011;35021;49.214;12.270;2023-07-29T14:19:01;1.70;;;1.00;;
49183;SDS011;35021;49.214;12.270;2023-07-29T14:21:28;1.90;;;1.10;;
49183;SDS011;35021;49.214;12.270;2023-07-29T14:23:55;2.22;;;1.33;;
49183;SDS011;35021;49.214;12.270;2023-07-29T14:26:22;1.90;;;1.10;;
49183;SDS011;35021;49.214;12.270;2023-07-29T14:28:49;1.90;;;1.13;;
49183;SDS011;35021;49.214;12.270;2023-07-29T14:31:16;1.33;;;0.98;;
49183;SDS011;35021;49.214;12.270;2023-07-29T14:33:43;2.25;;;1.00;;
49183;SDS011;35021;49.214;12.270;2023-07-29T14:36:10;2.22;;;1.23;;
49183;SDS011;35021;49.214;12.270;2023-07-29T14:38:37;2.53;;;1.23;;
49183;SDS011;35021;49.214;12.270;2023-07-29T14:41:04;2.95;;;1.05;;
49183;SDS011;35021;49.214;12.270;2023-07-29T14:43:31;2.67;;;1.10;;
49183;SDS011;35021;49.214;12.270;2023-07-29T14:45:58;1.90;;;0.98;;
49183;SDS011;35021;49.214;12.270;2023-07-29T14:48:25;2.58;;;1.20;;
49183;SDS011;35021;49.214;12.270;2023-07-29T14:50:51;1.80;;;1.35;;
49183;SDS011;35021;49.214;12.270;2023-07-29T14:53:18;1.92;;;1.27;;
49183;SDS011;35021;49.214;12.270;2023-07-29T14:55:45;2.45;;;1.40;;